createdAt,value
2022-12-22T08:08:09.875Z,34.00
2022-12-22T08:10:37.907Z,34.00
2022-12-22T08:13:06.022Z,34.40
2022-12-22T08:15:34.125Z,34.80
2022-12-22T08:18:02.194Z,35.00
2022-12-22T08:20:30.206Z,35.30
2022-12-22T08:22:58.228Z,35.20
2022-12-22T08:25:27.621Z,34.90
2022-12-22T08:27:55.686Z,34.70
2022-12-22T08:30:23.774Z,34.40
2022-12-22T08:32:51.833Z,34.30
2022-12-22T08:35:20.265Z,34.10
2022-12-22T08:37:48.354Z,34.00
2022-12-22T08:40:19.125Z,33.90
2022-12-22T08:42:48.623Z,34.20
2022-12-22T08:45:16.816Z,34.40
2022-12-22T08:47:44.911Z,34.80
2022-12-22T08:50:13.933Z,35.00
2022-12-22T08:52:41.990Z,35.30
2022-12-22T08:55:10.678Z,34.90
2022-12-22T08:57:38.733Z,34.70
2022-12-22T09:00:10.569Z,34.40
2022-12-22T09:02:39.177Z,34.30
2022-12-22T09:05:07.957Z,34.20
2022-12-22T09:07:36.082Z,34.10
2022-12-22T09:10:04.438Z,33.90
2022-12-22T09:12:33.617Z,33.90
2022-12-22T09:15:01.712Z,34.20
2022-12-22T09:17:31.100Z,34.40
2022-12-22T09:19:59.153Z,34.90
2022-12-22T09:22:28.173Z,35.30
2022-12-22T09:24:57.051Z,35.50
2022-12-22T09:27:25.099Z,35.60
2022-12-22T09:29:53.233Z,35.30
2022-12-22T09:32:21.327Z,35.00
2022-12-22T09:34:50.767Z,34.70
2022-12-22T09:37:18.806Z,34.60
2022-12-22T09:39:46.993Z,34.40
2022-12-22T09:42:15.936Z,34.20
2022-12-22T09:44:46.036Z,34.10
2022-12-22T09:47:17.694Z,33.90
2022-12-22T09:49:45.731Z,34.30
2022-12-22T09:52:23.854Z,34.60
2022-12-22T09:54:51.932Z,34.80
2022-12-22T09:57:20.213Z,35.30
2022-12-22T09:59:48.223Z,35.10
2022-12-22T10:02:22.711Z,34.80
2022-12-22T10:04:57.615Z,34.60
2022-12-22T10:07:29.496Z,34.30
2022-12-22T10:09:57.583Z,34.20
2022-12-22T10:12:26.707Z,34.00
2022-12-22T10:14:55.442Z,34.00
2022-12-22T10:17:25.564Z,33.80
2022-12-22T10:19:54.288Z,34.20
2022-12-22T10:22:34.057Z,34.50
2022-12-22T10:25:03.128Z,34.60
2022-12-22T10:27:32.406Z,35.00
2022-12-22T10:30:20.540Z,35.10
2022-12-22T10:33:06.074Z,34.70
2022-12-22T10:35:48.723Z,34.60
2022-12-22T10:38:22.980Z,34.30
2022-12-22T10:40:56.564Z,34.20
2022-12-22T10:43:29.094Z,34.10
2022-12-22T10:45:57.559Z,33.90
2022-12-22T10:48:33.424Z,33.80
2022-12-22T10:51:02.087Z,34.10
2022-12-22T10:53:46.087Z,34.40
2022-12-22T10:56:25.160Z,34.60
2022-12-22T10:58:54.421Z,35.00
2022-12-22T11:01:27.662Z,34.90
2022-12-22T11:03:55.856Z,34.70
2022-12-22T11:06:24.014Z,34.50
2022-12-22T11:08:53.618Z,34.30
2022-12-22T11:11:32.616Z,34.10
2022-12-22T11:14:07.514Z,34.00
2022-12-22T11:16:38.531Z,34.00
2022-12-22T11:19:18.305Z,33.80
2022-12-22T11:21:47.936Z,34.10
2022-12-22T11:24:24.137Z,34.30
2022-12-22T11:26:56.717Z,34.50
2022-12-22T11:29:36.581Z,35.00
2022-12-22T11:32:13.289Z,35.30
2022-12-22T11:34:52.087Z,35.50
2022-12-22T11:37:30.155Z,35.30
2022-12-22T11:40:01.289Z,34.90
2022-12-22T11:42:41.834Z,34.60
2022-12-22T11:45:16.565Z,34.50
2022-12-22T11:47:47.909Z,34.40
2022-12-22T11:51:00.896Z,34.20
2022-12-22T11:53:41.746Z,34.00
2022-12-22T11:56:19.935Z,34.00
2022-12-22T11:59:16.671Z,34.40
2022-12-22T12:02:12.242Z,34.70
2022-12-22T12:05:08.135Z,35.00
2022-12-22T12:07:37.933Z,35.20
2022-12-22T12:10:13.817Z,34.80
2022-12-22T12:12:49.547Z,34.60
2022-12-22T12:15:23.810Z,34.40
2022-12-22T12:18:01.157Z,34.20
2022-12-22T12:20:34.452Z,34.10
2022-12-22T12:23:11.245Z,34.00
2022-12-22T12:25:40.560Z,33.90
2022-12-22T12:28:16.220Z,34.10
2022-12-22T12:30:49.790Z,34.40
2022-12-22T12:33:19.285Z,34.60
2022-12-22T12:35:52.202Z,35.00
2022-12-22T12:38:56.838Z,35.00
2022-12-22T12:41:16.346Z,34.70
2022-12-22T12:43:45.728Z,34.50
2022-12-22T12:46:45.692Z,34.40
2022-12-22T12:49:50.999Z,34.20
2022-12-22T12:52:19.018Z,34.00
2022-12-22T12:54:47.697Z,33.90
2022-12-22T12:57:31.728Z,33.90
2022-12-22T13:00:01.289Z,34.20
2022-12-22T13:02:37.840Z,34.40
2022-12-22T13:05:28.595Z,34.80
2022-12-22T13:08:23.970Z,35.20
2022-12-22T13:14:57.337Z,34.60
2022-12-22T13:17:35.366Z,34.30
2022-12-22T13:20:05.992Z,34.10
2022-12-22T13:22:34.112Z,34.00
2022-12-22T13:25:03.401Z,34.00
2022-12-22T13:27:31.496Z,33.80
2022-12-22T13:30:00.007Z,34.30
2022-12-22T13:32:29.669Z,34.50
2022-12-22T13:37:54.737Z,35.10
2022-12-22T13:40:23.436Z,35.50
2022-12-22T13:42:52.436Z,35.70
2022-12-22T13:45:32.663Z,35.30
2022-12-22T13:48:01.694Z,35.00
2022-12-22T13:50:33.854Z,34.80
2022-12-22T13:53:01.910Z,34.60
2022-12-22T13:55:30.847Z,34.40
2022-12-22T13:58:02.042Z,34.20
2022-12-22T14:00:30.358Z,34.10
2022-12-22T14:02:58.560Z,34.00
2022-12-22T14:05:33.093Z,34.40
2022-12-22T14:08:02.239Z,34.60
2022-12-22T14:10:34.559Z,34.90
2022-12-22T14:13:08.174Z,35.20
2022-12-22T14:15:36.803Z,35.20
2022-12-22T14:18:05.356Z,34.90
2022-12-22T14:20:35.791Z,34.70
2022-12-22T14:23:07.359Z,34.40
2022-12-22T14:25:36.238Z,34.90
2022-12-22T14:28:04.397Z,34.20
2022-12-22T14:30:38.265Z,34.00
2022-12-22T14:33:17.939Z,34.00
2022-12-22T14:35:47.740Z,34.20
2022-12-22T14:38:20.031Z,34.60
2022-12-22T14:40:52.624Z,34.70
2022-12-22T14:43:29.566Z,35.10
2022-12-22T14:46:06.702Z,35.20
2022-12-22T14:48:36.326Z,34.90
2022-12-22T14:51:05.861Z,34.70
2022-12-22T14:53:40.000Z,34.40
2022-12-22T14:56:12.509Z,34.30
2022-12-22T14:58:41.457Z,34.20
2022-12-22T15:01:15.746Z,34.00
2022-12-22T15:03:44.192Z,34.00
2022-12-22T15:06:34.767Z,34.30
2022-12-22T15:10:04.233Z,34.40
2022-12-22T15:12:18.115Z,34.80
2022-12-22T15:14:47.759Z,35.20
2022-12-22T15:17:21.016Z,35.10
2022-12-22T15:19:49.087Z,34.80
2022-12-22T15:22:18.654Z,34.60
2022-12-22T15:24:47.922Z,34.40
2022-12-22T15:27:15.936Z,34.30
2022-12-22T15:29:43.953Z,34.20
2022-12-22T15:32:12.576Z,33.90
2022-12-22T15:34:40.692Z,33.90
2022-12-22T15:37:11.897Z,34.20
2022-12-22T15:39:41.494Z,34.40
2022-12-22T15:42:09.595Z,34.70
2022-12-22T15:44:39.148Z,35.00
2022-12-22T15:47:07.521Z,35.40
2022-12-22T15:49:35.578Z,35.60
2022-12-22T15:52:04.541Z,35.50
2022-12-22T15:54:33.298Z,35.10
2022-12-22T15:57:02.973Z,34.90
2022-12-22T15:59:31.486Z,34.70
2022-12-22T16:02:01.799Z,34.50
2022-12-22T16:04:30.478Z,34.40
2022-12-22T16:06:59.941Z,34.80
2022-12-22T16:09:31.402Z,34.10
2022-12-22T16:11:59.513Z,34.40
2022-12-22T16:14:32.432Z,34.70
2022-12-22T16:17:03.341Z,34.80
2022-12-22T16:19:31.492Z,35.00
2022-12-22T16:21:59.516Z,35.40
2022-12-22T16:24:34.354Z,35.00
2022-12-22T16:27:03.859Z,34.80
2022-12-22T16:29:46.291Z,34.60
2022-12-22T16:32:35.280Z,34.40
2022-12-22T16:35:26.748Z,34.30
2022-12-22T16:40:51.309Z,34.00
2022-12-22T16:46:23.452Z,34.50
2022-12-22T16:49:06.681Z,34.90
2022-12-22T16:51:49.620Z,35.20
2022-12-22T16:54:37.143Z,35.10
2022-12-22T16:57:16.682Z,34.80
2022-12-22T16:59:52.151Z,34.70
2022-12-22T17:02:35.820Z,34.40
2022-12-22T17:05:11.153Z,34.20
2022-12-22T17:07:56.718Z,34.20
2022-12-22T17:10:35.597Z,34.00
2022-12-22T17:13:31.948Z,34.00
2022-12-22T17:16:03.865Z,34.40
2022-12-22T17:18:52.809Z,34.70
2022-12-22T17:21:29.328Z,35.10
2022-12-22T17:24:22.836Z,35.30
2022-12-22T17:27:04.596Z,34.90
2022-12-22T17:29:49.975Z,34.70
2022-12-22T17:32:32.367Z,34.50
2022-12-22T17:35:14.704Z,34.30
2022-12-22T17:38:01.742Z,34.10
2022-12-22T17:40:38.620Z,34.00
2022-12-22T17:43:13.808Z,33.90
2022-12-22T17:45:59.751Z,34.30
2022-12-22T17:48:34.626Z,34.50
2022-12-22T17:51:13.199Z,34.90
2022-12-22T17:53:52.134Z,35.20
2022-12-22T17:56:22.186Z,35.50
2022-12-22T17:59:10.029Z,35.70
2022-12-22T18:02:00.812Z,35.30
2022-12-22T18:04:41.613Z,35.00
2022-12-22T18:07:24.135Z,34.80
2022-12-22T18:10:14.514Z,34.50
2022-12-22T18:12:58.506Z,34.40
2022-12-22T18:15:43.328Z,34.20
2022-12-22T18:18:27.860Z,34.10
2022-12-22T18:21:11.949Z,34.50
2022-12-22T18:23:51.490Z,34.70
2022-12-22T18:26:41.107Z,35.00
2022-12-22T18:29:36.148Z,35.30
2022-12-22T18:32:27.725Z,35.10
2022-12-22T18:35:21.241Z,34.90
2022-12-22T18:38:07.840Z,34.60
2022-12-22T18:40:49.004Z,34.40
2022-12-22T18:43:32.199Z,34.20
2022-12-22T18:46:13.069Z,34.20
2022-12-22T18:49:03.464Z,34.00
2022-12-22T18:51:51.558Z,34.30
2022-12-22T18:54:51.614Z,34.60
2022-12-22T18:57:33.116Z,34.90
2022-12-22T19:00:14.055Z,35.80
2022-12-22T19:02:58.334Z,35.10
2022-12-22T19:05:53.510Z,35.40
2022-12-22T19:08:37.842Z,34.60
2022-12-22T19:11:26.379Z,34.40
2022-12-22T19:14:24.114Z,34.30
2022-12-22T19:17:00.144Z,34.10
2022-12-22T19:19:44.831Z,34.00
2022-12-22T19:22:44.323Z,34.20
2022-12-22T19:25:43.160Z,34.50
2022-12-22T19:28:30.945Z,34.90
2022-12-22T19:31:13.205Z,35.20
2022-12-22T19:33:51.448Z,35.10
2022-12-22T19:36:32.114Z,34.80
2022-12-22T19:39:26.206Z,34.50
2022-12-22T19:42:08.451Z,34.40
2022-12-22T19:44:52.688Z,34.10
2022-12-22T19:48:08.886Z,34.10
2022-12-22T19:50:46.866Z,34.00
2022-12-22T19:53:35.191Z,34.30
2022-12-22T19:56:18.731Z,34.60
2022-12-22T19:59:05.126Z,34.90
2022-12-22T20:01:49.034Z,35.20
2022-12-22T20:04:40.555Z,35.50
2022-12-22T20:07:26.294Z,35.70
2022-12-22T20:10:07.113Z,35.20
2022-12-22T20:13:05.994Z,35.00
2022-12-22T20:16:01.637Z,34.70
2022-12-22T20:18:53.036Z,34.50
2022-12-22T20:21:38.012Z,34.30
2022-12-22T20:24:18.813Z,34.20
2022-12-22T20:26:55.883Z,34.10
2022-12-22T20:29:28.987Z,34.60
2022-12-22T20:32:27.600Z,34.70
2022-12-22T20:35:09.183Z,35.10
2022-12-22T20:38:00.584Z,35.40
2022-12-22T20:40:53.409Z,35.20
2022-12-22T20:43:56.632Z,34.80
2022-12-22T20:46:37.348Z,34.60
2022-12-22T20:52:33.551Z,34.20
2022-12-22T20:55:16.325Z,34.10
2022-12-22T20:57:52.585Z,34.00
2022-12-22T21:00:36.121Z,34.40
2022-12-22T21:03:14.145Z,34.70
2022-12-22T21:05:50.822Z,35.00
2022-12-22T21:08:26.143Z,35.40
2022-12-22T21:11:11.462Z,35.00
2022-12-22T21:13:55.510Z,34.70
2022-12-22T21:16:41.202Z,34.60
2022-12-22T21:19:33.227Z,34.40
2022-12-22T21:22:11.596Z,34.20
2022-12-22T21:25:02.448Z,34.00
2022-12-22T21:27:40.194Z,33.90
2022-12-22T21:30:29.358Z,34.30
2022-12-22T21:33:12.203Z,34.50
2022-12-22T21:35:47.117Z,34.90
2022-12-22T21:38:48.260Z,35.20
2022-12-22T21:41:42.493Z,35.20
2022-12-22T21:44:20.352Z,35.10
2022-12-22T21:46:58.146Z,34.60
2022-12-22T21:49:38.158Z,34.30
2022-12-22T21:52:20.863Z,34.20
2022-12-22T21:55:16.070Z,34.10
2022-12-22T21:58:00.166Z,33.90
2022-12-22T22:00:39.086Z,34.10
2022-12-22T22:03:35.143Z,34.50
2022-12-22T22:06:14.100Z,34.80
2022-12-22T22:08:54.778Z,35.20
2022-12-22T22:11:59.858Z,35.50
2022-12-22T22:14:46.198Z,35.70
2022-12-22T22:17:26.566Z,35.30
2022-12-22T22:20:06.567Z,35.00
2022-12-22T22:22:47.784Z,34.80
2022-12-22T22:25:36.871Z,34.50
2022-12-22T22:28:06.456Z,34.40
2022-12-22T22:30:53.948Z,34.30
2022-12-22T22:33:30.454Z,34.10
2022-12-22T22:36:15.648Z,34.30
2022-12-22T22:39:06.239Z,34.70
2022-12-22T22:41:50.944Z,34.90
2022-12-22T22:44:31.674Z,35.20
2022-12-22T22:47:12.900Z,35.30
2022-12-22T22:49:54.927Z,34.90
2022-12-22T22:52:42.047Z,34.60
2022-12-22T22:55:24.633Z,34.50
2022-12-22T22:58:04.408Z,34.40
2022-12-22T23:00:52.173Z,34.20
2022-12-22T23:03:31.900Z,34.00
2022-12-22T23:06:16.843Z,34.00
2022-12-22T23:08:57.058Z,34.40
2022-12-22T23:11:45.139Z,34.70
2022-12-22T23:14:25.017Z,35.10
2022-12-22T23:17:00.519Z,35.30
2022-12-22T23:19:43.501Z,34.90
2022-12-22T23:22:22.325Z,34.80
2022-12-22T23:25:18.035Z,34.50
2022-12-22T23:27:55.331Z,34.40
2022-12-22T23:30:38.904Z,34.10
2022-12-22T23:33:23.852Z,34.00
2022-12-22T23:36:13.356Z,33.90
2022-12-22T23:39:01.434Z,34.40
2022-12-22T23:41:48.216Z,34.70
2022-12-22T23:44:34.713Z,34.90
2022-12-22T23:47:18.799Z,35.30
2022-12-22T23:49:53.378Z,35.00
2022-12-22T23:52:49.127Z,34.70
2022-12-22T23:55:35.187Z,34.60
2022-12-22T23:58:20.101Z,34.40
